sensor_id;sensor_type;location;lat;lon;timestamp;P1;durP1;ratioP1;P2;durP2;ratioP2
64686;SDS011;51113;53.646;-113.674;2022-07-05T00:02:11;10.68;;;8.27;;
64686;SDS011;51113;53.646;-113.674;2022-07-05T00:04:40;5.82;;;3.60;;
64686;SDS011;51113;53.646;-113.674;2022-07-05T00:07:10;8.90;;;4.03;;
64686;SDS011;51113;53.646;-113.674;2022-07-05T00:09:51;5.75;;;3.78;;
64686;SDS011;51113;53.646;-113.674;2022-07-05T00:12:27;8.88;;;3.58;;
64686;SDS011;51113;53.646;-113.674;2022-07-05T00:14:59;10.48;;;4.22;;
64686;SDS011;51113;53.646;-113.674;2022-07-05T00:17:29;7.40;;;3.17;;
64686;SDS011;51113;53.646;-113.674;2022-07-05T00:19:58;6.13;;;2.75;;
64686;SDS011;51113;53.646;-113.674;2022-07-05T00:22:26;5.30;;;3.45;;
64686;SDS011;51113;53.646;-113.674;2022-07-05T00:24:55;5.20;;;2.38;;
64686;SDS011;51113;53.646;-113.674;2022-07-05T00:27:25;5.38;;;2.17;;
64686;SDS011;51113;53.646;-113.674;2022-07-05T00:29:54;9.68;;;5.68;;
64686;SDS011;51113;53.646;-113.674;2022-07-05T00:32:22;15.60;;;8.40;;
64686;SDS011;51113;53.646;-113.674;2022-07-05T00:34:51;3.60;;;2.38;;
64686;SDS011;51113;53.646;-113.674;2022-07-05T00:37:19;3.15;;;1.85;;
64686;SDS011;51113;53.646;-113.674;2022-07-05T00:39:48;5.65;;;2.88;;
64686;SDS011;51113;53.646;-113.674;2022-07-05T00:42:18;10.68;;;2.80;;
64686;SDS011;51113;53.646;-113.674;2022-07-05T00:44:47;5.63;;;3.38;;
64686;SDS011;51113;53.646;-113.674;2022-07-05T00:47:17;7.78;;;5.22;;
64686;SDS011;51113;53.646;-113.674;2022-07-05T00:49:45;9.15;;;3.85;;
64686;SDS011;51113;53.646;-113.674;2022-07-05T00:52:15;10.23;;;4.55;;
64686;SDS011;51113;53.646;-113.674;2022-07-05T00:54:45;8.75;;;4.25;;
64686;SDS011;51113;53.646;-113.674;2022-07-05T00:57:17;5.65;;;3.90;;
64686;SDS011;51113;53.646;-113.674;2022-07-05T00:59:49;6.35;;;4.18;;
64686;SDS011;51113;53.646;-113.674;2022-07-05T01:02:18;10.80;;;4.25;;
64686;SDS011;51113;53.646;-113.674;2022-07-05T01:04:48;9.30;;;4.63;;
64686;SDS011;51113;53.646;-113.674;2022-07-05T01:07:18;7.82;;;4.55;;
64686;SDS011;51113;53.646;-113.674;2022-07-05T01:09:49;6.80;;;4.88;;
64686;SDS011;51113;53.646;-113.674;2022-07-05T01:12:18;9.50;;;4.40;;
64686;SDS011;51113;53.646;-113.674;2022-07-05T01:14:47;8.00;;;4.90;;
64686;SDS011;51113;53.646;-113.674;2022-07-05T01:17:17;7.43;;;4.82;;
64686;SDS011;51113;53.646;-113.674;2022-07-05T01:19:48;7.90;;;4.50;;
64686;SDS011;51113;53.646;-113.674;2022-07-05T01:22:17;7.18;;;4.65;;
64686;SDS011;51113;53.646;-113.674;2022-07-05T01:24:48;5.88;;;4.22;;
64686;SDS011;51113;53.646;-113.674;2022-07-05T01:27:19;9.73;;;4.72;;
64686;SDS011;51113;53.646;-113.674;2022-07-05T01:29:48;11.52;;;5.20;;
64686;SDS011;51113;53.646;-113.674;2022-07-05T01:32:17;7.22;;;4.95;;
64686;SDS011;51113;53.646;-113.674;2022-07-05T01:34:45;8.85;;;5.05;;
64686;SDS011;51113;53.646;-113.674;2022-07-05T01:37:15;10.38;;;5.18;;
64686;SDS011;51113;53.646;-113.674;2022-07-05T01:39:43;10.85;;;5.30;;
64686;SDS011;51113;53.646;-113.674;2022-07-05T01:42:14;11.05;;;5.15;;
64686;SDS011;51113;53.646;-113.674;2022-07-05T01:44:43;13.10;;;5.32;;
64686;SDS011;51113;53.646;-113.674;2022-07-05T01:47:13;9.27;;;4.55;;
64686;SDS011;51113;53.646;-113.674;2022-07-05T01:49:46;17.17;;;4.90;;
64686;SDS011;51113;53.646;-113.674;2022-07-05T01:52:16;5.53;;;3.20;;
64686;SDS011;51113;53.646;-113.674;2022-07-05T01:54:49;8.13;;;2.20;;
64686;SDS011;51113;53.646;-113.674;2022-07-05T01:57:17;6.28;;;3.08;;
64686;SDS011;51113;53.646;-113.674;2022-07-05T01:59:48;6.65;;;2.80;;
64686;SDS011;51113;53.646;-113.674;2022-07-05T02:02:17;9.20;;;3.25;;
64686;SDS011;51113;53.646;-113.674;2022-07-05T02:04:46;9.50;;;3.35;;
64686;SDS011;51113;53.646;-113.674;2022-07-05T02:07:15;8.43;;;3.42;;
64686;SDS011;51113;53.646;-113.674;2022-07-05T02:09:44;7.10;;;3.67;;
64686;SDS011;51113;53.646;-113.674;2022-07-05T02:12:13;9.55;;;4.43;;
64686;SDS011;51113;53.646;-113.674;2022-07-05T02:14:42;5.38;;;3.00;;
64686;SDS011;51113;53.646;-113.674;2022-07-05T02:17:12;7.78;;;3.45;;
64686;SDS011;51113;53.646;-113.674;2022-07-05T02:19:40;8.35;;;4.07;;
64686;SDS011;51113;53.646;-113.674;2022-07-05T02:22:09;9.32;;;3.42;;
64686;SDS011;51113;53.646;-113.674;2022-07-05T02:24:42;6.22;;;3.25;;
64686;SDS011;51113;53.646;-113.674;2022-07-05T02:27:11;7.22;;;3.70;;
64686;SDS011;51113;53.646;-113.674;2022-07-05T02:29:40;7.43;;;3.45;;
64686;SDS011;51113;53.646;-113.674;2022-07-05T02:32:09;11.60;;;4.07;;
64686;SDS011;51113;53.646;-113.674;2022-07-05T02:34:37;9.35;;;3.70;;
64686;SDS011;51113;53.646;-113.674;2022-07-05T02:37:06;8.88;;;3.67;;
64686;SDS011;51113;53.646;-113.674;2022-07-05T02:39:34;9.00;;;3.67;;
64686;SDS011;51113;53.646;-113.674;2022-07-05T02:42:03;9.13;;;3.63;;
64686;SDS011;51113;53.646;-113.674;2022-07-05T02:44:33;8.60;;;3.53;;
64686;SDS011;51113;53.646;-113.674;2022-07-05T02:47:03;8.50;;;4.13;;
64686;SDS011;51113;53.646;-113.674;2022-07-05T02:49:31;9.48;;;3.97;;
64686;SDS011;51113;53.646;-113.674;2022-07-05T02:52:00;8.50;;;4.00;;
64686;SDS011;51113;53.646;-113.674;2022-07-05T02:54:28;9.55;;;4.13;;
64686;SDS011;51113;53.646;-113.674;2022-07-05T02:56:56;11.70;;;4.93;;
64686;SDS011;51113;53.646;-113.674;2022-07-05T02:59:25;9.10;;;4.68;;
64686;SDS011;51113;53.646;-113.674;2022-07-05T03:01:54;10.70;;;4.57;;
64686;SDS011;51113;53.646;-113.674;2022-07-05T03:04:22;10.07;;;4.22;;
64686;SDS011;51113;53.646;-113.674;2022-07-05T03:06:51;5.43;;;3.45;;
64686;SDS011;51113;53.646;-113.674;2022-07-05T03:09:20;9.60;;;4.28;;
64686;SDS011;51113;53.646;-113.674;2022-07-05T03:11:48;6.05;;;3.67;;
64686;SDS011;51113;53.646;-113.674;2022-07-05T03:14:17;7.97;;;4.45;;
64686;SDS011;51113;53.646;-113.674;2022-07-05T03:16:46;12.13;;;4.20;;
64686;SDS011;51113;53.646;-113.674;2022-07-05T03:19:15;9.18;;;3.58;;
64686;SDS011;51113;53.646;-113.674;2022-07-05T03:21:44;8.40;;;3.80;;
64686;SDS011;51113;53.646;-113.674;2022-07-05T03:24:13;9.85;;;4.50;;
64686;SDS011;51113;53.646;-113.674;2022-07-05T03:26:41;11.30;;;5.25;;
64686;SDS011;51113;53.646;-113.674;2022-07-05T03:29:10;11.85;;;5.65;;
64686;SDS011;51113;53.646;-113.674;2022-07-05T03:31:38;11.02;;;6.03;;
64686;SDS011;51113;53.646;-113.674;2022-07-05T03:34:07;11.43;;;6.60;;
64686;SDS011;51113;53.646;-113.674;2022-07-05T03:36:36;9.57;;;6.65;;
64686;SDS011;51113;53.646;-113.674;2022-07-05T03:39:05;14.05;;;7.13;;
64686;SDS011;51113;53.646;-113.674;2022-07-05T03:41:34;10.13;;;7.38;;
64686;SDS011;51113;53.646;-113.674;2022-07-05T03:44:03;10.25;;;7.25;;
64686;SDS011;51113;53.646;-113.674;2022-07-05T03:46:32;11.45;;;7.53;;
64686;SDS011;51113;53.646;-113.674;2022-07-05T03:49:00;12.68;;;8.27;;
64686;SDS011;51113;53.646;-113.674;2022-07-05T03:51:28;12.10;;;8.38;;
64686;SDS011;51113;53.646;-113.674;2022-07-05T03:53:57;14.07;;;8.43;;
64686;SDS011;51113;53.646;-113.674;2022-07-05T03:56:26;12.35;;;8.52;;
64686;SDS011;51113;53.646;-113.674;2022-07-05T03:58:55;15.13;;;8.88;;
64686;SDS011;51113;53.646;-113.674;2022-07-05T04:01:23;12.43;;;8.73;;
64686;SDS011;51113;53.646;-113.674;2022-07-05T04:03:53;12.35;;;8.77;;
64686;SDS011;51113;53.646;-113.674;2022-07-05T04:06:22;14.85;;;8.65;;
64686;SDS011;51113;53.646;-113.674;2022-07-05T04:08:50;14.70;;;9.10;;
64686;SDS011;51113;53.646;-113.674;2022-07-05T04:11:19;11.95;;;8.52;;
64686;SDS011;51113;53.646;-113.674;2022-07-05T04:13:48;13.75;;;9.18;;
64686;SDS011;51113;53.646;-113.674;2022-07-05T04:16:18;14.63;;;9.02;;
64686;SDS011;51113;53.646;-113.674;2022-07-05T04:18:46;14.52;;;9.30;;
64686;SDS011;51113;53.646;-113.674;2022-07-05T04:21:15;14.05;;;9.60;;
64686;SDS011;51113;53.646;-113.674;2022-07-05T04:23:43;14.23;;;9.82;;
64686;SDS011;51113;53.646;-113.674;2022-07-05T04:26:12;14.93;;;9.13;;
64686;SDS011;51113;53.646;-113.674;2022-07-05T04:28:41;18.05;;;10.75;;
64686;SDS011;51113;53.646;-113.674;2022-07-05T04:31:11;13.30;;;9.35;;
64686;SDS011;51113;53.646;-113.674;2022-07-05T04:33:39;13.05;;;9.60;;
64686;SDS011;51113;53.646;-113.674;2022-07-05T04:36:08;15.88;;;9.38;;
64686;SDS011;51113;53.646;-113.674;2022-07-05T04:38:37;14.90;;;10.15;;
64686;SDS011;51113;53.646;-113.674;2022-07-05T04:41:06;16.17;;;11.13;;
64686;SDS011;51113;53.646;-113.674;2022-07-05T04:43:35;16.77;;;9.55;;
64686;SDS011;51113;53.646;-113.674;2022-07-05T04:46:04;13.65;;;10.00;;
64686;SDS011;51113;53.646;-113.674;2022-07-05T04:48:34;15.07;;;9.18;;
64686;SDS011;51113;53.646;-113.674;2022-07-05T04:51:02;15.77;;;9.68;;
64686;SDS011;51113;53.646;-113.674;2022-07-05T04:53:31;12.65;;;9.13;;
64686;SDS011;51113;53.646;-113.674;2022-07-05T04:55:59;13.95;;;9.40;;
64686;SDS011;51113;53.646;-113.674;2022-07-05T04:58:30;13.95;;;9.40;;
64686;SDS011;51113;53.646;-113.674;2022-07-05T05:00:58;16.65;;;9.35;;
64686;SDS011;51113;53.646;-113.674;2022-07-05T05:03:27;14.73;;;9.07;;
64686;SDS011;51113;53.646;-113.674;2022-07-05T05:05:57;17.25;;;8.40;;
64686;SDS011;51113;53.646;-113.674;2022-07-05T05:08:26;12.95;;;8.07;;
64686;SDS011;51113;53.646;-113.674;2022-07-05T05:10:55;11.65;;;8.20;;
64686;SDS011;51113;53.646;-113.674;2022-07-05T05:13:23;11.13;;;7.65;;
64686;SDS011;51113;53.646;-113.674;2022-07-05T05:15:52;12.65;;;8.38;;
64686;SDS011;51113;53.646;-113.674;2022-07-05T05:18:21;11.95;;;7.93;;
64686;SDS011;51113;53.646;-113.674;2022-07-05T05:20:54;10.48;;;7.45;;
64686;SDS011;51113;53.646;-113.674;2022-07-05T05:23:24;12.57;;;7.97;;
64686;SDS011;51113;53.646;-113.674;2022-07-05T05:25:52;15.15;;;8.48;;
64686;SDS011;51113;53.646;-113.674;2022-07-05T05:28:21;11.70;;;7.95;;
64686;SDS011;51113;53.646;-113.674;2022-07-05T05:30:49;11.73;;;8.48;;
64686;SDS011;51113;53.646;-113.674;2022-07-05T05:33:18;12.57;;;8.30;;
64686;SDS011;51113;53.646;-113.674;2022-07-05T05:35:53;13.43;;;8.30;;
64686;SDS011;51113;53.646;-113.674;2022-07-05T05:38:22;12.05;;;7.97;;
64686;SDS011;51113;53.646;-113.674;2022-07-05T05:40:50;10.90;;;7.82;;
64686;SDS011;51113;53.646;-113.674;2022-07-05T05:43:19;13.40;;;9.05;;
64686;SDS011;51113;53.646;-113.674;2022-07-05T05:45:49;11.45;;;8.63;;
64686;SDS011;51113;53.646;-113.674;2022-07-05T05:48:18;15.05;;;8.85;;
64686;SDS011;51113;53.646;-113.674;2022-07-05T05:50:48;14.45;;;9.10;;
64686;SDS011;51113;53.646;-113.674;2022-07-05T05:53:16;15.20;;;9.60;;
64686;SDS011;51113;53.646;-113.674;2022-07-05T05:55:46;13.77;;;8.98;;
64686;SDS011;51113;53.646;-113.674;2022-07-05T06:00:45;13.15;;;9.35;;
64686;SDS011;51113;53.646;-113.674;2022-07-05T06:03:22;15.57;;;9.98;;
64686;SDS011;51113;53.646;-113.674;2022-07-05T06:05:53;14.30;;;10.07;;
64686;SDS011;51113;53.646;-113.674;2022-07-05T06:08:22;17.38;;;9.90;;
64686;SDS011;51113;53.646;-113.674;2022-07-05T06:10:51;15.55;;;10.13;;
64686;SDS011;51113;53.646;-113.674;2022-07-05T06:13:27;16.35;;;10.07;;
64686;SDS011;51113;53.646;-113.674;2022-07-05T06:15:56;15.32;;;10.35;;
64686;SDS011;51113;53.646;-113.674;2022-07-05T06:18:24;15.85;;;10.73;;
64686;SDS011;51113;53.646;-113.674;2022-07-05T06:20:53;15.00;;;10.65;;
64686;SDS011;51113;53.646;-113.674;2022-07-05T06:23:21;17.63;;;11.00;;
64686;SDS011;51113;53.646;-113.674;2022-07-05T06:25:50;15.75;;;10.50;;
64686;SDS011;51113;53.646;-113.674;2022-07-05T06:28:19;17.70;;;11.50;;
64686;SDS011;51113;53.646;-113.674;2022-07-05T06:30:47;22.20;;;11.00;;
64686;SDS011;51113;53.646;-113.674;2022-07-05T06:33:17;17.10;;;10.32;;
64686;SDS011;51113;53.646;-113.674;2022-07-05T06:35:45;16.75;;;10.95;;
64686;SDS011;51113;53.646;-113.674;2022-07-05T06:38:14;17.80;;;10.52;;
64686;SDS011;51113;53.646;-113.674;2022-07-05T06:40:43;17.85;;;10.35;;
64686;SDS011;51113;53.646;-113.674;2022-07-05T06:43:12;16.88;;;10.63;;
64686;SDS011;51113;53.646;-113.674;2022-07-05T06:45:42;18.65;;;11.43;;
64686;SDS011;51113;53.646;-113.674;2022-07-05T06:48:11;17.27;;;10.60;;
64686;SDS011;51113;53.646;-113.674;2022-07-05T06:50:42;19.42;;;10.52;;
64686;SDS011;51113;53.646;-113.674;2022-07-05T06:53:11;16.25;;;11.20;;
64686;SDS011;51113;53.646;-113.674;2022-07-05T06:55:40;19.35;;;11.43;;
64686;SDS011;51113;53.646;-113.674;2022-07-05T06:58:21;17.30;;;11.25;;
64686;SDS011;51113;53.646;-113.674;2022-07-05T07:00:50;17.77;;;11.23;;
64686;SDS011;51113;53.646;-113.674;2022-07-05T07:03:40;20.45;;;11.00;;
64686;SDS011;51113;53.646;-113.674;2022-07-05T07:06:29;18.77;;;11.15;;
64686;SDS011;51113;53.646;-113.674;2022-07-05T07:08:58;14.65;;;10.45;;
64686;SDS011;51113;53.646;-113.674;2022-07-05T07:11:45;18.77;;;11.55;;
64686;SDS011;51113;53.646;-113.674;2022-07-05T07:14:15;16.02;;;11.52;;
64686;SDS011;51113;53.646;-113.674;2022-07-05T07:16:44;17.85;;;11.45;;
64686;SDS011;51113;53.646;-113.674;2022-07-05T07:19:13;24.02;;;12.02;;
64686;SDS011;51113;53.646;-113.674;2022-07-05T07:21:42;19.63;;;12.18;;
64686;SDS011;51113;53.646;-113.674;2022-07-05T07:24:11;18.83;;;10.63;;
64686;SDS011;51113;53.646;-113.674;2022-07-05T07:26:40;20.85;;;11.55;;
64686;SDS011;51113;53.646;-113.674;2022-07-05T07:29:26;16.77;;;11.93;;
64686;SDS011;51113;53.646;-113.674;2022-07-05T07:31:56;18.58;;;12.88;;
64686;SDS011;51113;53.646;-113.674;2022-07-05T07:34:25;18.27;;;11.52;;
64686;SDS011;51113;53.646;-113.674;2022-07-05T07:36:55;16.33;;;11.13;;
64686;SDS011;51113;53.646;-113.674;2022-07-05T07:39:25;15.93;;;11.13;;
64686;SDS011;51113;53.646;-113.674;2022-07-05T07:41:52;18.33;;;12.40;;
64686;SDS011;51113;53.646;-113.674;2022-07-05T07:44:21;22.17;;;12.02;;
64686;SDS011;51113;53.646;-113.674;2022-07-05T07:46:51;16.23;;;11.35;;
64686;SDS011;51113;53.646;-113.674;2022-07-05T07:49:19;16.23;;;10.80;;
64686;SDS011;51113;53.646;-113.674;2022-07-05T07:51:50;17.60;;;11.75;;
64686;SDS011;51113;53.646;-113.674;2022-07-05T07:54:20;18.05;;;11.40;;
64686;SDS011;51113;53.646;-113.674;2022-07-05T07:56:48;15.93;;;11.68;;
64686;SDS011;51113;53.646;-113.674;2022-07-05T07:59:17;17.48;;;11.48;;
64686;SDS011;51113;53.646;-113.674;2022-07-05T08:01:46;18.02;;;11.77;;
64686;SDS011;51113;53.646;-113.674;2022-07-05T08:04:14;17.70;;;11.60;;
64686;SDS011;51113;53.646;-113.674;2022-07-05T08:06:43;16.23;;;11.30;;
64686;SDS011;51113;53.646;-113.674;2022-07-05T08:09:13;15.25;;;10.93;;
64686;SDS011;51113;53.646;-113.674;2022-07-05T08:11:44;16.42;;;10.88;;
64686;SDS011;51113;53.646;-113.674;2022-07-05T08:14:14;17.40;;;11.27;;
64686;SDS011;51113;53.646;-113.674;2022-07-05T08:16:43;18.02;;;12.05;;
64686;SDS011;51113;53.646;-113.674;2022-07-05T08:19:18;18.35;;;11.32;;
64686;SDS011;51113;53.646;-113.674;2022-07-05T08:22:06;18.70;;;12.05;;
64686;SDS011;51113;53.646;-113.674;2022-07-05T08:24:37;16.83;;;11.48;;
64686;SDS011;51113;53.646;-113.674;2022-07-05T08:27:08;19.80;;;12.05;;
64686;SDS011;51113;53.646;-113.674;2022-07-05T08:29:38;16.95;;;10.82;;
64686;SDS011;51113;53.646;-113.674;2022-07-05T08:32:06;20.25;;;11.73;;
64686;SDS011;51113;53.646;-113.674;2022-07-05T08:34:35;17.20;;;11.35;;
64686;SDS011;51113;53.646;-113.674;2022-07-05T08:37:05;19.08;;;12.18;;
64686;SDS011;51113;53.646;-113.674;2022-07-05T08:39:41;19.02;;;12.30;;
64686;SDS011;51113;53.646;-113.674;2022-07-05T08:42:10;20.50;;;11.98;;
64686;SDS011;51113;53.646;-113.674;2022-07-05T08:44:41;19.42;;;11.70;;
64686;SDS011;51113;53.646;-113.674;2022-07-05T08:47:12;24.17;;;12.82;;
64686;SDS011;51113;53.646;-113.674;2022-07-05T08:49:42;20.92;;;11.80;;
64686;SDS011;51113;53.646;-113.674;2022-07-05T08:52:13;15.82;;;10.82;;
64686;SDS011;51113;53.646;-113.674;2022-07-05T08:54:43;18.50;;;10.90;;
64686;SDS011;51113;53.646;-113.674;2022-07-05T08:57:15;17.75;;;10.32;;
64686;SDS011;51113;53.646;-113.674;2022-07-05T08:59:43;19.67;;;11.10;;
64686;SDS011;51113;53.646;-113.674;2022-07-05T09:02:13;18.52;;;10.27;;
64686;SDS011;51113;53.646;-113.674;2022-07-05T09:04:45;17.80;;;10.57;;
64686;SDS011;51113;53.646;-113.674;2022-07-05T09:07:16;17.27;;;9.98;;
64686;SDS011;51113;53.646;-113.674;2022-07-05T09:09:46;15.90;;;8.82;;
64686;SDS011;51113;53.646;-113.674;2022-07-05T09:12:18;15.35;;;9.63;;
64686;SDS011;51113;53.646;-113.674;2022-07-05T09:14:52;17.67;;;10.75;;
64686;SDS011;51113;53.646;-113.674;2022-07-05T09:17:22;15.95;;;9.98;;
64686;SDS011;51113;53.646;-113.674;2022-07-05T09:20:10;15.23;;;9.93;;
64686;SDS011;51113;53.646;-113.674;2022-07-05T09:28:01;15.15;;;10.13;;
64686;SDS011;51113;53.646;-113.674;2022-07-05T09:30:38;17.13;;;10.32;;
64686;SDS011;51113;53.646;-113.674;2022-07-05T09:33:10;16.45;;;10.93;;
64686;SDS011;51113;53.646;-113.674;2022-07-05T09:35:42;14.68;;;10.10;;
64686;SDS011;51113;53.646;-113.674;2022-07-05T09:38:26;22.35;;;11.15;;
64686;SDS011;51113;53.646;-113.674;2022-07-05T09:40:59;18.52;;;11.30;;
64686;SDS011;51113;53.646;-113.674;2022-07-05T09:43:31;20.00;;;11.05;;
64686;SDS011;51113;53.646;-113.674;2022-07-05T09:46:00;21.00;;;11.10;;
64686;SDS011;51113;53.646;-113.674;2022-07-05T09:48:35;19.30;;;11.18;;
64686;SDS011;51113;53.646;-113.674;2022-07-05T09:51:09;16.40;;;10.73;;
64686;SDS011;51113;53.646;-113.674;2022-07-05T09:53:59;15.52;;;10.75;;
64686;SDS011;51113;53.646;-113.674;2022-07-05T09:56:45;18.13;;;11.40;;
64686;SDS011;51113;53.646;-113.674;2022-07-05T09:59:16;20.23;;;11.18;;
64686;SDS011;51113;53.646;-113.674;2022-07-05T10:04:17;19.15;;;11.02;;
64686;SDS011;51113;53.646;-113.674;2022-07-05T10:06:47;21.92;;;11.57;;
64686;SDS011;51113;53.646;-113.674;2022-07-05T10:09:15;15.68;;;10.82;;
64686;SDS011;51113;53.646;-113.674;2022-07-05T10:11:46;19.38;;;11.50;;
64686;SDS011;51113;53.646;-113.674;2022-07-05T10:14:16;18.55;;;11.88;;
64686;SDS011;51113;53.646;-113.674;2022-07-05T10:16:52;22.23;;;11.88;;
64686;SDS011;51113;53.646;-113.674;2022-07-05T10:19:31;15.98;;;11.68;;
64686;SDS011;51113;53.646;-113.674;2022-07-05T10:22:02;21.58;;;11.85;;
64686;SDS011;51113;53.646;-113.674;2022-07-05T10:24:48;17.42;;;11.38;;
64686;SDS011;51113;53.646;-113.674;2022-07-05T10:27:17;15.43;;;11.13;;
64686;SDS011;51113;53.646;-113.674;2022-07-05T10:29:48;17.92;;;11.50;;
64686;SDS011;51113;53.646;-113.674;2022-07-05T10:32:18;19.90;;;11.23;;
64686;SDS011;51113;53.646;-113.674;2022-07-05T10:34:50;18.50;;;11.63;;
64686;SDS011;51113;53.646;-113.674;2022-07-05T10:37:27;16.90;;;11.18;;
64686;SDS011;51113;53.646;-113.674;2022-07-05T10:39:57;14.38;;;9.60;;
64686;SDS011;51113;53.646;-113.674;2022-07-05T10:42:29;13.52;;;8.80;;
64686;SDS011;51113;53.646;-113.674;2022-07-05T10:48:11;14.60;;;9.38;;
64686;SDS011;51113;53.646;-113.674;2022-07-05T10:50:51;21.42;;;9.68;;
64686;SDS011;51113;53.646;-113.674;2022-07-05T10:58:33;16.63;;;10.55;;
64686;SDS011;51113;53.646;-113.674;2022-07-05T11:06:29;16.00;;;10.48;;
64686;SDS011;51113;53.646;-113.674;2022-07-05T11:11:40;20.55;;;11.00;;
64686;SDS011;51113;53.646;-113.674;2022-07-05T11:14:31;15.00;;;10.43;;
64686;SDS011;51113;53.646;-113.674;2022-07-05T11:17:16;16.02;;;10.90;;
64686;SDS011;51113;53.646;-113.674;2022-07-05T11:22:41;19.42;;;11.63;;
64686;SDS011;51113;53.646;-113.674;2022-07-05T11:25:29;20.20;;;11.77;;
64686;SDS011;51113;53.646;-113.674;2022-07-05T11:28:07;17.52;;;11.15;;
64686;SDS011;51113;53.646;-113.674;2022-07-05T11:30:48;19.00;;;12.20;;
64686;SDS011;51113;53.646;-113.674;2022-07-05T11:33:26;17.15;;;11.55;;
64686;SDS011;51113;53.646;-113.674;2022-07-05T11:36:07;18.15;;;11.35;;
64686;SDS011;51113;53.646;-113.674;2022-07-05T11:41:45;18.75;;;12.30;;
64686;SDS011;51113;53.646;-113.674;2022-07-05T11:44:16;19.27;;;11.25;;
64686;SDS011;51113;53.646;-113.674;2022-07-05T11:46:45;23.30;;;11.30;;
64686;SDS011;51113;53.646;-113.674;2022-07-05T11:49:19;17.60;;;11.15;;
64686;SDS011;51113;53.646;-113.674;2022-07-05T11:51:57;19.10;;;10.80;;
64686;SDS011;51113;53.646;-113.674;2022-07-05T11:54:30;18.55;;;11.27;;
64686;SDS011;51113;53.646;-113.674;2022-07-05T11:59:29;19.90;;;11.25;;
64686;SDS011;51113;53.646;-113.674;2022-07-05T12:01:58;18.20;;;10.90;;
64686;SDS011;51113;53.646;-113.674;2022-07-05T12:04:28;14.98;;;10.65;;
64686;SDS011;51113;53.646;-113.674;2022-07-05T12:06:58;18.00;;;11.63;;
64686;SDS011;51113;53.646;-113.674;2022-07-05T12:09:28;16.52;;;10.63;;
64686;SDS011;51113;53.646;-113.674;2022-07-05T12:12:20;17.73;;;11.40;;
64686;SDS011;51113;53.646;-113.674;2022-07-05T12:15:20;17.42;;;10.38;;
64686;SDS011;51113;53.646;-113.674;2022-07-05T12:17:50;20.67;;;11.45;;
64686;SDS011;51113;53.646;-113.674;2022-07-05T12:20:23;19.70;;;11.90;;
64686;SDS011;51113;53.646;-113.674;2022-07-05T12:22:52;19.15;;;11.73;;
64686;SDS011;51113;53.646;-113.674;2022-07-05T12:25:22;19.65;;;12.65;;
64686;SDS011;51113;53.646;-113.674;2022-07-05T12:27:54;23.75;;;12.35;;
64686;SDS011;51113;53.646;-113.674;2022-07-05T12:30:24;20.45;;;13.27;;
64686;SDS011;51113;53.646;-113.674;2022-07-05T12:33:05;20.30;;;13.52;;
64686;SDS011;51113;53.646;-113.674;2022-07-05T12:35:44;16.75;;;11.70;;
64686;SDS011;51113;53.646;-113.674;2022-07-05T12:38:15;19.23;;;12.65;;
64686;SDS011;51113;53.646;-113.674;2022-07-05T12:40:57;21.10;;;12.93;;
64686;SDS011;51113;53.646;-113.674;2022-07-05T12:43:28;22.10;;;13.77;;
64686;SDS011;51113;53.646;-113.674;2022-07-05T12:46:05;23.20;;;13.75;;
64686;SDS011;51113;53.646;-113.674;2022-07-05T12:48:36;23.30;;;14.13;;
64686;SDS011;51113;53.646;-113.674;2022-07-05T12:51:08;22.27;;;14.27;;
64686;SDS011;51113;53.646;-113.674;2022-07-05T12:53:46;23.70;;;14.32;;
64686;SDS011;51113;53.646;-113.674;2022-07-05T12:56:34;22.77;;;13.82;;
64686;SDS011;51113;53.646;-113.674;2022-07-05T13:00:03;30.23;;;14.35;;
64686;SDS011;51113;53.646;-113.674;2022-07-05T13:05:09;20.45;;;13.23;;
64686;SDS011;51113;53.646;-113.674;2022-07-05T13:07:50;22.48;;;14.32;;
64686;SDS011;51113;53.646;-113.674;2022-07-05T13:10:21;19.58;;;14.27;;
64686;SDS011;51113;53.646;-113.674;2022-07-05T13:12:52;22.98;;;14.70;;
64686;SDS011;51113;53.646;-113.674;2022-07-05T13:15:20;20.17;;;12.93;;
64686;SDS011;51113;53.646;-113.674;2022-07-05T13:17:49;22.58;;;13.35;;
64686;SDS011;51113;53.646;-113.674;2022-07-05T13:20:19;18.88;;;12.20;;
64686;SDS011;51113;53.646;-113.674;2022-07-05T13:22:50;15.93;;;11.43;;
64686;SDS011;51113;53.646;-113.674;2022-07-05T13:25:19;18.98;;;12.32;;
64686;SDS011;51113;53.646;-113.674;2022-07-05T13:27:48;18.80;;;11.60;;
64686;SDS011;51113;53.646;-113.674;2022-07-05T13:30:19;20.67;;;11.93;;
64686;SDS011;51113;53.646;-113.674;2022-07-05T13:32:48;18.75;;;11.45;;
64686;SDS011;51113;53.646;-113.674;2022-07-05T13:35:17;16.58;;;11.05;;
64686;SDS011;51113;53.646;-113.674;2022-07-05T13:37:45;19.15;;;11.43;;
64686;SDS011;51113;53.646;-113.674;2022-07-05T13:40:14;19.00;;;11.88;;
64686;SDS011;51113;53.646;-113.674;2022-07-05T13:42:42;17.13;;;10.93;;
64686;SDS011;51113;53.646;-113.674;2022-07-05T13:45:11;18.23;;;12.40;;
64686;SDS011;51113;53.646;-113.674;2022-07-05T13:47:45;18.73;;;11.50;;
64686;SDS011;51113;53.646;-113.674;2022-07-05T13:50:14;20.60;;;12.25;;
64686;SDS011;51113;53.646;-113.674;2022-07-05T13:53:02;19.90;;;12.05;;
64686;SDS011;51113;53.646;-113.674;2022-07-05T13:55:30;20.23;;;11.90;;
64686;SDS011;51113;53.646;-113.674;2022-07-05T13:57:59;18.10;;;10.93;;
64686;SDS011;51113;53.646;-113.674;2022-07-05T14:00:28;16.02;;;11.07;;
64686;SDS011;51113;53.646;-113.674;2022-07-05T14:02:57;17.70;;;12.40;;
64686;SDS011;51113;53.646;-113.674;2022-07-05T14:05:31;22.25;;;13.30;;
64686;SDS011;51113;53.646;-113.674;2022-07-05T14:08:00;20.05;;;12.30;;
64686;SDS011;51113;53.646;-113.674;2022-07-05T14:10:29;16.48;;;11.73;;
64686;SDS011;51113;53.646;-113.674;2022-07-05T14:12:58;18.70;;;12.48;;
64686;SDS011;51113;53.646;-113.674;2022-07-05T14:15:26;18.65;;;11.38;;
64686;SDS011;51113;53.646;-113.674;2022-07-05T14:17:55;18.50;;;12.70;;
64686;SDS011;51113;53.646;-113.674;2022-07-05T14:20:27;18.20;;;12.05;;
64686;SDS011;51113;53.646;-113.674;2022-07-05T14:22:57;22.35;;;11.13;;
64686;SDS011;51113;53.646;-113.674;2022-07-05T14:25:25;17.60;;;11.38;;
64686;SDS011;51113;53.646;-113.674;2022-07-05T14:27:54;21.35;;;11.35;;
64686;SDS011;51113;53.646;-113.674;2022-07-05T14:30:22;17.63;;;12.25;;
64686;SDS011;51113;53.646;-113.674;2022-07-05T14:32:52;19.35;;;12.45;;
64686;SDS011;51113;53.646;-113.674;2022-07-05T14:35:21;18.50;;;12.05;;
64686;SDS011;51113;53.646;-113.674;2022-07-05T14:37:49;17.27;;;11.70;;
64686;SDS011;51113;53.646;-113.674;2022-07-05T14:40:17;20.30;;;11.75;;
64686;SDS011;51113;53.646;-113.674;2022-07-05T14:42:46;16.92;;;11.20;;
64686;SDS011;51113;53.646;-113.674;2022-07-05T14:45:15;18.08;;;11.77;;
64686;SDS011;51113;53.646;-113.674;2022-07-05T14:47:50;18.50;;;11.60;;
64686;SDS011;51113;53.646;-113.674;2022-07-05T14:50:18;20.00;;;11.13;;
64686;SDS011;51113;53.646;-113.674;2022-07-05T14:52:48;14.30;;;10.27;;